createdAt,value
2023-10-11T00:00:04.411Z,122.500000
2023-10-11T00:01:01.110Z,122.500000
2023-10-11T00:02:01.216Z,122.500000
2023-10-11T00:03:01.159Z,112.500000
2023-10-11T00:04:03.979Z,112.500000
2023-10-11T00:05:03.765Z,112.500000
2023-10-11T00:06:01.228Z,112.500000
2023-10-11T00:07:01.136Z,112.500000
2023-10-11T00:08:01.219Z,115.000000
2023-10-11T00:09:01.266Z,115.000000
2023-10-11T00:10:04.157Z,115.000000
2023-10-11T00:11:01.542Z,115.000000
2023-10-11T00:12:01.255Z,115.000000
2023-10-11T00:13:01.148Z,115.000000
2023-10-11T00:14:01.230Z,115.000000
2023-10-11T00:15:03.773Z,115.000000
2023-10-11T00:16:01.229Z,115.000000
2023-10-11T00:17:00.206Z,115.000000
2023-10-11T00:18:00.342Z,115.000000
2023-10-11T00:19:00.279Z,115.000000
2023-10-11T00:20:03.426Z,115.000000
2023-10-11T00:21:00.212Z,115.000000
2023-10-11T00:22:00.276Z,115.000000
2023-10-11T00:23:00.224Z,115.000000
2023-10-11T00:24:00.386Z,115.000000
2023-10-11T00:25:02.913Z,120.000000
2023-10-11T00:26:00.386Z,120.000000
2023-10-11T00:27:00.268Z,120.000000
2023-10-11T00:28:00.344Z,120.000000
2023-10-11T00:29:00.229Z,112.500000
2023-10-11T00:30:03.666Z,112.500000
2023-10-11T00:31:00.309Z,95.000000
2023-10-11T00:32:00.353Z,95.000000
2023-10-11T00:33:00.374Z,95.000000
2023-10-11T00:34:00.475Z,95.000000
2023-10-11T00:35:02.875Z,95.000000
2023-10-11T00:36:00.453Z,97.500000
2023-10-11T00:37:00.310Z,97.500000
2023-10-11T00:38:00.382Z,97.500000
2023-10-11T00:39:00.388Z,97.500000
2023-10-11T00:40:06.183Z,97.500000
2023-10-11T00:41:00.324Z,107.500000
2023-10-11T00:42:00.473Z,107.500000
2023-10-11T00:43:00.384Z,107.500000
2023-10-11T00:44:00.463Z,112.500000
2023-10-11T00:45:03.674Z,112.500000
2023-10-11T00:46:00.574Z,110.000000
2023-10-11T00:47:00.386Z,110.000000
2023-10-11T00:48:00.613Z,110.000000
2023-10-11T00:49:00.402Z,110.000000
2023-10-11T00:50:03.707Z,110.000000
2023-10-11T00:51:00.506Z,110.000000
2023-10-11T00:52:00.547Z,110.000000
2023-10-11T00:53:00.478Z,110.000000
2023-10-11T00:54:00.575Z,110.000000
2023-10-11T00:55:03.766Z,110.000000
2023-10-11T00:56:00.561Z,110.000000
2023-10-11T00:57:00.506Z,110.000000
2023-10-11T00:58:00.615Z,110.000000
2023-10-11T00:59:00.537Z,110.000000
2023-10-11T01:00:03.658Z,110.000000
2023-10-11T01:01:00.544Z,110.000000
2023-10-11T01:02:00.608Z,110.000000
2023-10-11T01:03:00.657Z,110.000000
2023-10-11T01:04:00.804Z,110.000000
2023-10-11T01:05:03.145Z,110.000000
2023-10-11T01:06:00.663Z,110.000000
2023-10-11T01:07:00.551Z,110.000000
2023-10-11T01:08:00.624Z,110.000000
2023-10-11T01:09:00.631Z,110.000000
2023-10-11T01:10:04.137Z,110.000000
2023-10-11T01:11:00.667Z,110.000000
2023-10-11T01:12:00.873Z,110.000000
2023-10-11T01:13:00.621Z,110.000000
2023-10-11T01:14:00.700Z,110.000000
2023-10-11T01:15:03.147Z,110.000000
2023-10-11T01:16:00.756Z,110.000000
2023-10-11T01:17:00.649Z,110.000000
2023-10-11T01:18:00.869Z,110.000000
2023-10-11T01:19:00.691Z,110.000000
2023-10-11T01:20:04.108Z,110.000000
2023-10-11T01:21:00.768Z,110.000000
2023-10-11T01:22:00.780Z,110.000000
2023-10-11T01:23:00.687Z,110.000000
2023-10-11T01:24:00.791Z,110.000000
2023-10-11T01:25:03.246Z,110.000000
2023-10-11T01:26:00.757Z,110.000000
2023-10-11T01:27:00.781Z,110.000000
2023-10-11T01:28:00.793Z,110.000000
2023-10-11T01:29:00.743Z,110.000000
2023-10-11T01:30:03.866Z,110.000000
2023-10-11T01:31:00.747Z,95.000000
2023-10-11T01:32:00.842Z,95.000000
2023-10-11T01:33:00.871Z,95.000000
2023-10-11T01:34:00.957Z,72.500000
2023-10-11T01:35:03.222Z,72.500000
2023-10-11T01:36:00.896Z,72.500000
2023-10-11T01:37:00.791Z,72.500000
2023-10-11T01:38:00.926Z,72.500000
2023-10-11T01:39:00.840Z,72.500000
2023-10-11T01:40:04.781Z,72.500000
2023-10-11T01:41:00.828Z,72.500000
2023-10-11T01:42:00.957Z,72.500000
2023-10-11T01:43:00.814Z,72.500000
2023-10-11T01:44:00.883Z,72.500000
2023-10-11T01:45:03.316Z,72.500000
2023-10-11T01:46:01.017Z,72.500000
2023-10-11T01:47:00.848Z,202.500000
2023-10-11T01:48:01.048Z,202.500000
2023-10-11T01:49:00.832Z,200.000000
2023-10-11T01:50:04.073Z,200.000000
2023-10-11T01:51:00.970Z,200.000000
2023-10-11T01:52:00.996Z,102.500000
2023-10-11T01:53:00.897Z,102.500000
2023-10-11T01:54:01.205Z,120.000000
2023-10-11T01:55:03.464Z,120.000000
2023-10-11T01:56:01.014Z,120.000000
2023-10-11T01:57:00.948Z,120.000000
2023-10-11T01:58:00.972Z,120.000000
2023-10-11T01:59:00.910Z,127.500000
2023-10-11T02:00:04.016Z,127.500000
2023-10-11T02:01:00.946Z,127.500000
2023-10-11T02:02:01.078Z,122.500000
2023-10-11T02:03:01.017Z,122.500000
2023-10-11T02:04:01.453Z,115.000000
2023-10-11T02:05:03.706Z,115.000000
2023-10-11T02:06:01.107Z,120.000000
2023-10-11T02:07:00.952Z,120.000000
2023-10-11T02:08:01.070Z,120.000000
2023-10-11T02:09:01.150Z,140.000000
2023-10-11T02:10:03.963Z,140.000000
2023-10-11T02:11:01.009Z,140.000000
2023-10-11T02:12:01.076Z,140.000000
2023-10-11T02:13:01.042Z,140.000000
2023-10-11T02:14:01.074Z,140.000000
2023-10-11T02:15:08.818Z,115.000000
2023-10-11T02:16:01.183Z,115.000000
2023-10-11T02:17:01.053Z,102.500000
2023-10-11T02:18:01.232Z,102.500000
2023-10-11T02:19:01.095Z,105.000000
2023-10-11T02:20:03.939Z,105.000000
2023-10-11T02:21:01.127Z,105.000000
2023-10-11T02:22:02.178Z,105.000000
2023-10-11T02:23:01.067Z,105.000000
2023-10-11T02:24:01.373Z,105.000000
2023-10-11T02:25:03.982Z,105.000000
2023-10-11T02:26:01.182Z,105.000000
2023-10-11T02:27:01.181Z,115.000000
2023-10-11T02:28:01.205Z,115.000000
2023-10-11T02:29:01.121Z,112.500000
2023-10-11T02:30:04.782Z,112.500000
2023-10-11T02:31:01.319Z,112.500000
2023-10-11T02:32:01.222Z,100.000000
2023-10-11T02:33:01.281Z,100.000000
2023-10-11T02:34:01.220Z,100.000000
2023-10-11T02:35:04.993Z,100.000000
2023-10-11T02:36:01.280Z,100.000000
2023-10-11T02:37:00.156Z,102.500000
2023-10-11T02:38:00.267Z,102.500000
2023-10-11T02:39:00.267Z,102.500000
2023-10-11T02:40:03.018Z,102.500000
2023-10-11T02:41:00.200Z,102.500000
2023-10-11T02:42:00.357Z,125.000000
2023-10-11T02:43:00.182Z,125.000000
2023-10-11T02:44:00.265Z,125.000000
2023-10-11T02:45:03.081Z,117.500000
2023-10-11T02:46:00.378Z,117.500000
2023-10-11T02:47:00.875Z,117.500000
2023-10-11T02:48:00.553Z,100.000000
2023-10-11T02:49:00.233Z,100.000000
2023-10-11T02:50:04.949Z,100.000000
2023-10-11T02:51:00.329Z,100.000000
2023-10-11T02:52:00.311Z,100.000000
2023-10-11T02:53:00.277Z,100.000000
2023-10-11T02:54:00.369Z,100.000000
2023-10-11T02:55:03.527Z,102.500000
2023-10-11T02:56:00.366Z,102.500000
2023-10-11T02:57:00.349Z,102.500000
2023-10-11T02:58:00.330Z,102.500000
2023-10-11T02:59:00.287Z,102.500000
2023-10-11T03:00:03.627Z,102.500000
2023-10-11T03:01:16.692Z,102.500000
2023-10-11T03:02:00.529Z,102.500000
2023-10-11T03:03:00.468Z,102.500000
2023-10-11T03:04:00.480Z,102.500000
2023-10-11T03:05:03.120Z,102.500000
2023-10-11T03:06:00.452Z,102.500000
2023-10-11T03:07:00.384Z,102.500000
2023-10-11T03:08:00.445Z,105.000000
2023-10-11T03:09:00.396Z,105.000000
2023-10-11T03:10:03.528Z,105.000000
2023-10-11T03:11:00.364Z,105.000000
2023-10-11T03:12:00.470Z,105.000000
2023-10-11T03:13:00.491Z,105.000000
2023-10-11T03:14:00.461Z,105.000000
2023-10-11T03:15:03.247Z,105.000000
2023-10-11T03:16:00.526Z,105.000000
2023-10-11T03:17:00.392Z,105.000000
2023-10-11T03:18:00.660Z,105.000000
2023-10-11T03:19:00.407Z,105.000000
2023-10-11T03:20:03.637Z,105.000000
2023-10-11T03:21:00.509Z,105.000000
2023-10-11T03:22:00.495Z,105.000000
2023-10-11T03:23:00.491Z,107.500000
2023-10-11T03:24:00.552Z,107.500000
2023-10-11T03:25:03.328Z,107.500000
2023-10-11T03:26:00.562Z,107.500000
2023-10-11T03:27:00.621Z,107.500000
2023-10-11T03:28:00.556Z,112.500000
2023-10-11T03:29:00.506Z,112.500000
2023-10-11T03:30:17.989Z,112.500000
2023-10-11T03:31:00.535Z,115.000000
2023-10-11T03:32:00.659Z,115.000000
2023-10-11T03:33:00.677Z,112.500000
2023-10-11T03:34:00.597Z,112.500000
2023-10-11T03:35:00.924Z,112.500000
2023-10-11T03:36:00.657Z,115.000000
2023-10-11T03:37:00.614Z,115.000000
2023-10-11T03:38:00.950Z,115.000000
2023-10-11T03:39:00.663Z,115.000000
2023-10-11T03:40:01.154Z,115.000000
2023-10-11T03:41:00.610Z,112.500000
2023-10-11T03:42:00.788Z,112.500000
2023-10-11T03:43:00.693Z,112.500000
2023-10-11T03:44:00.698Z,112.500000
2023-10-11T03:45:01.080Z,112.500000
2023-10-11T03:46:00.888Z,115.000000
2023-10-11T03:47:00.692Z,115.000000
2023-10-11T03:48:00.841Z,115.000000
2023-10-11T03:49:00.654Z,115.000000
2023-10-11T03:50:01.291Z,115.000000
2023-10-11T03:51:00.728Z,115.000000
2023-10-11T03:52:00.766Z,115.000000
2023-10-11T03:53:00.648Z,115.000000
2023-10-11T03:54:00.787Z,115.000000
2023-10-11T03:55:00.981Z,115.000000
2023-10-11T03:56:00.851Z,115.000000
2023-10-11T03:57:00.732Z,115.000000
2023-10-11T03:58:00.880Z,115.000000
2023-10-11T03:59:00.689Z,115.000000
2023-10-11T04:00:01.463Z,115.000000
2023-10-11T04:01:00.741Z,115.000000
2023-10-11T04:02:00.794Z,115.000000
2023-10-11T04:03:00.909Z,115.000000
2023-10-11T04:04:00.923Z,115.000000
2023-10-11T04:05:01.044Z,115.000000
2023-10-11T04:06:00.872Z,107.500000
2023-10-11T04:07:00.746Z,107.500000
2023-10-11T04:08:02.653Z,105.000000
2023-10-11T04:09:00.818Z,105.000000
2023-10-11T04:10:01.322Z,105.000000
2023-10-11T04:11:00.777Z,105.000000
2023-10-11T04:12:00.907Z,105.000000
2023-10-11T04:13:00.822Z,110.000000
2023-10-11T04:14:00.898Z,110.000000
2023-10-11T04:15:01.161Z,110.000000
2023-10-11T04:16:00.931Z,115.000000
2023-10-11T04:17:00.791Z,115.000000
2023-10-11T04:18:00.999Z,132.500000
2023-10-11T04:19:00.907Z,132.500000
2023-10-11T04:20:05.717Z,150.000000
2023-10-11T04:21:00.885Z,150.000000
2023-10-11T04:22:00.908Z,150.000000
2023-10-11T04:23:00.856Z,150.000000
2023-10-11T04:24:01.035Z,150.000000
2023-10-11T04:25:04.249Z,150.000000
2023-10-11T04:26:00.964Z,115.000000
2023-10-11T04:27:00.955Z,115.000000
2023-10-11T04:28:00.945Z,115.000000
2023-10-11T04:29:00.903Z,95.000000
2023-10-11T04:30:03.871Z,95.000000
2023-10-11T04:31:00.945Z,107.500000
2023-10-11T04:32:01.041Z,107.500000
2023-10-11T04:33:01.020Z,115.000000
2023-10-11T04:34:01.421Z,115.000000
2023-10-11T04:35:03.636Z,115.000000
2023-10-11T04:36:01.131Z,115.000000
2023-10-11T04:37:00.957Z,115.000000
2023-10-11T04:38:01.054Z,115.000000
2023-10-11T04:39:01.001Z,77.500000
2023-10-11T04:40:04.987Z,77.500000
2023-10-11T04:41:00.974Z,100.000000
2023-10-11T04:42:01.126Z,100.000000
2023-10-11T04:43:01.004Z,127.500000
2023-10-11T04:44:01.164Z,127.500000
2023-10-11T04:45:03.785Z,127.500000
2023-10-11T04:46:01.215Z,130.000000
2023-10-11T04:47:01.125Z,130.000000
2023-10-11T04:48:01.237Z,130.000000
2023-10-11T04:49:01.166Z,117.500000
2023-10-11T04:50:04.683Z,117.500000
2023-10-11T04:51:01.101Z,117.500000
2023-10-11T04:52:01.173Z,95.000000
2023-10-11T04:53:01.096Z,95.000000
2023-10-11T04:54:01.215Z,95.000000
2023-10-11T04:55:04.359Z,95.000000
2023-10-11T04:56:01.174Z,117.500000
2023-10-11T04:57:01.176Z,117.500000
2023-10-11T04:58:01.172Z,117.500000
2023-10-11T04:59:01.125Z,112.500000
2023-10-11T05:00:07.065Z,112.500000
2023-10-11T05:01:00.358Z,127.500000
2023-10-11T05:02:00.468Z,127.500000
2023-10-11T05:03:00.316Z,127.500000
2023-10-11T05:04:00.344Z,120.000000
2023-10-11T05:05:02.769Z,120.000000
2023-10-11T05:06:00.594Z,90.000000
2023-10-11T05:07:00.210Z,90.000000
2023-10-11T05:08:00.327Z,90.000000
2023-10-11T05:09:00.286Z,140.000000
2023-10-11T05:10:03.504Z,140.000000
2023-10-11T05:11:00.248Z,140.000000
2023-10-11T05:12:00.428Z,145.000000
2023-10-11T05:13:00.264Z,145.000000
2023-10-11T05:14:00.339Z,160.000000
2023-10-11T05:15:05.018Z,160.000000
2023-10-11T05:16:00.379Z,160.000000
2023-10-11T05:17:00.266Z,160.000000
2023-10-11T05:18:00.656Z,147.500000
2023-10-11T05:19:00.344Z,147.500000
2023-10-11T05:20:16.518Z,147.500000
2023-10-11T05:21:00.360Z,160.000000
2023-10-11T05:22:04.408Z,160.000000
2023-10-11T05:23:00.320Z,160.000000
2023-10-11T05:24:00.437Z,140.000000
2023-10-11T05:25:02.934Z,140.000000
2023-10-11T05:26:00.461Z,125.000000
2023-10-11T05:27:00.420Z,125.000000
2023-10-11T05:28:00.465Z,125.000000
2023-10-11T05:29:00.380Z,125.000000
2023-10-11T05:30:03.795Z,125.000000
2023-10-11T05:31:00.435Z,142.500000
2023-10-11T05:32:00.465Z,142.500000
2023-10-11T05:33:00.499Z,142.500000
2023-10-11T05:34:00.480Z,150.000000
2023-10-11T05:35:03.312Z,150.000000
2023-10-11T05:36:00.513Z,150.000000
2023-10-11T05:37:00.401Z,157.500000
2023-10-11T05:38:00.531Z,157.500000
2023-10-11T05:39:00.487Z,165.000000
2023-10-11T05:40:03.571Z,165.000000
2023-10-11T05:41:00.508Z,165.000000
2023-10-11T05:42:00.608Z,162.500000
2023-10-11T05:43:00.437Z,162.500000
2023-10-11T05:44:00.566Z,162.500000
2023-10-11T05:45:03.063Z,145.000000
2023-10-11T05:46:00.506Z,145.000000
2023-10-11T05:47:00.485Z,140.000000
2023-10-11T05:48:00.595Z,140.000000
2023-10-11T05:49:00.459Z,140.000000
2023-10-11T05:50:04.460Z,140.000000
2023-10-11T05:51:00.609Z,140.000000
2023-10-11T05:52:00.553Z,115.000000
2023-10-11T05:53:00.514Z,115.000000
2023-10-11T05:54:00.732Z,115.000000
2023-10-11T05:57:00.581Z,95.000000
2023-10-11T05:58:00.587Z,95.000000
2023-10-11T05:59:00.514Z,95.000000
2023-10-11T06:00:03.694Z,115.000000
2023-10-11T06:01:00.539Z,115.000000
2023-10-11T06:02:00.715Z,135.000000
2023-10-11T06:03:00.642Z,135.000000
2023-10-11T06:04:00.696Z,135.000000
2023-10-11T06:05:03.383Z,135.000000
2023-10-11T06:06:00.856Z,135.000000
2023-10-11T06:07:00.609Z,135.000000
2023-10-11T06:08:00.656Z,132.500000
2023-10-11T06:09:00.604Z,132.500000
2023-10-11T06:10:03.674Z,132.500000
2023-10-11T06:11:00.601Z,132.500000
2023-10-11T06:12:00.756Z,132.500000
2023-10-11T06:13:00.646Z,132.500000
2023-10-11T06:14:00.798Z,132.500000
2023-10-11T06:15:04.550Z,137.500000
2023-10-11T06:16:01.074Z,137.500000
2023-10-11T06:17:00.720Z,137.500000
2023-10-11T06:18:00.887Z,145.000000
2023-10-11T06:19:00.665Z,145.000000
2023-10-11T06:20:03.794Z,147.500000
2023-10-11T06:21:00.832Z,147.500000
2023-10-11T06:22:00.757Z,147.500000
2023-10-11T06:23:00.719Z,147.500000
2023-10-11T06:24:00.862Z,147.500000
2023-10-11T06:25:03.402Z,140.000000
2023-10-11T06:26:00.817Z,140.000000
2023-10-11T06:27:00.876Z,140.000000
2023-10-11T06:28:00.837Z,145.000000
2023-10-11T06:29:00.757Z,145.000000
2023-10-11T06:30:04.349Z,145.000000
2023-10-11T06:31:00.936Z,145.000000
2023-10-11T06:32:13.423Z,145.000000
2023-10-11T06:33:01.019Z,177.500000
2023-10-11T06:34:00.864Z,177.500000
2023-10-11T06:35:03.805Z,192.500000
2023-10-11T06:36:00.983Z,192.500000
2023-10-11T06:37:00.820Z,190.000000
2023-10-11T06:38:00.932Z,190.000000
2023-10-11T06:39:00.868Z,190.000000
2023-10-11T06:40:03.967Z,185.000000
2023-10-11T06:41:00.828Z,185.000000
2023-10-11T06:42:01.002Z,185.000000
2023-10-11T06:43:00.838Z,160.000000
2023-10-11T06:44:00.933Z,160.000000
2023-10-11T06:45:03.749Z,160.000000
2023-10-11T06:46:00.995Z,160.000000
2023-10-11T06:47:00.907Z,167.500000
2023-10-11T06:48:01.074Z,167.500000
2023-10-11T06:49:00.901Z,167.500000
2023-10-11T06:50:04.619Z,145.000000
2023-10-11T06:51:01.012Z,145.000000
2023-10-11T06:52:00.980Z,145.000000
2023-10-11T06:53:00.932Z,122.500000
2023-10-11T06:54:01.029Z,122.500000
2023-10-11T06:55:08.629Z,117.500000
2023-10-11T06:56:01.061Z,117.500000
2023-10-11T06:57:00.982Z,117.500000
2023-10-11T06:58:01.019Z,137.500000
2023-10-11T06:59:00.928Z,137.500000
2023-10-11T07:00:08.148Z,135.000000
2023-10-11T07:01:00.945Z,135.000000
2023-10-11T07:02:01.176Z,135.000000
2023-10-11T07:03:01.103Z,157.500000
2023-10-11T07:04:01.556Z,157.500000
2023-10-11T07:05:03.744Z,157.500000
2023-10-11T07:06:08.299Z,157.500000
2023-10-11T07:07:00.995Z,150.000000
2023-10-11T07:08:01.121Z,150.000000
2023-10-11T07:09:01.011Z,150.000000
2023-10-11T07:10:05.830Z,140.000000
2023-10-11T07:11:01.012Z,140.000000
2023-10-11T07:12:02.348Z,195.000000
2023-10-11T07:13:01.028Z,195.000000
2023-10-11T07:14:01.187Z,195.000000
2023-10-11T07:15:03.821Z,195.000000
2023-10-11T07:16:01.553Z,195.000000
2023-10-11T07:17:01.087Z,195.000000
2023-10-11T07:18:01.324Z,145.000000
2023-10-11T07:19:01.115Z,145.000000
2023-10-11T07:20:05.479Z,157.500000
2023-10-11T07:21:01.141Z,157.500000
2023-10-11T07:23:06.595Z,160.000000
2023-10-11T07:24:02.246Z,160.000000
2023-10-11T07:25:04.102Z,160.000000
2023-10-11T07:26:04.870Z,155.000000
2023-10-11T07:27:01.184Z,155.000000
2023-10-11T07:28:01.515Z,162.500000
2023-10-11T07:29:01.152Z,162.500000
2023-10-11T07:30:06.269Z,162.500000
2023-10-11T07:31:01.167Z,152.500000
2023-10-11T07:32:02.417Z,152.500000
2023-10-11T07:33:00.430Z,130.000000
2023-10-11T07:34:01.016Z,130.000000
2023-10-11T07:35:02.993Z,130.000000
2023-10-11T07:36:07.648Z,110.000000
2023-10-11T07:37:00.183Z,110.000000
2023-10-11T07:38:00.320Z,122.500000
2023-10-11T07:39:00.280Z,122.500000
2023-10-11T07:40:03.282Z,122.500000
2023-10-11T07:41:00.199Z,122.500000
2023-10-11T07:42:01.624Z,122.500000
2023-10-11T07:43:00.237Z,145.000000
2023-10-11T07:44:00.315Z,145.000000
2023-10-11T07:45:03.475Z,145.000000
2023-10-11T07:46:00.929Z,142.500000
2023-10-11T07:47:00.232Z,142.500000
2023-10-11T07:48:00.947Z,142.500000
2023-10-11T07:49:00.282Z,165.000000
2023-10-11T07:50:03.584Z,165.000000
2023-10-11T07:51:00.421Z,160.000000
2023-10-11T07:52:00.679Z,160.000000
2023-10-11T07:53:00.320Z,155.000000
2023-10-11T07:54:00.430Z,155.000000
2023-10-11T07:55:02.967Z,150.000000
2023-10-11T07:56:00.430Z,150.000000
2023-10-11T07:57:00.527Z,150.000000
2023-10-11T07:58:01.536Z,170.000000
2023-10-11T07:59:00.359Z,170.000000
2023-10-11T08:00:05.332Z,170.000000
2023-10-11T08:01:00.413Z,157.500000
2023-10-11T08:02:00.457Z,157.500000
2023-10-11T08:03:00.494Z,195.000000
2023-10-11T08:04:00.545Z,195.000000
2023-10-11T08:05:04.060Z,192.500000
2023-10-11T08:06:00.517Z,192.500000
2023-10-11T08:07:00.407Z,192.500000
2023-10-11T08:08:00.533Z,192.500000
2023-10-11T08:09:00.606Z,192.500000
2023-10-11T08:10:03.377Z,192.500000
2023-10-11T08:11:00.475Z,147.500000
2023-10-11T08:12:00.625Z,147.500000
2023-10-11T08:13:00.431Z,150.000000
2023-10-11T08:14:00.565Z,150.000000
2023-10-11T08:15:03.228Z,150.000000
2023-10-11T08:16:00.921Z,155.000000
2023-10-11T08:17:01.531Z,155.000000
2023-10-11T08:18:00.704Z,155.000000
2023-10-11T08:19:00.525Z,157.500000
2023-10-11T08:21:10.580Z,157.500000
2023-10-11T08:22:00.546Z,157.500000
2023-10-11T08:23:00.501Z,157.500000
2023-10-11T08:24:00.590Z,160.000000
2023-10-11T08:25:03.192Z,160.000000
2023-10-11T08:26:00.624Z,175.000000
2023-10-11T08:27:00.567Z,175.000000
2023-10-11T08:28:00.608Z,175.000000
2023-10-11T08:29:00.639Z,160.000000
2023-10-11T08:30:04.792Z,160.000000
2023-10-11T08:31:00.571Z,155.000000
2023-10-11T08:32:00.609Z,155.000000
2023-10-11T08:33:00.684Z,155.000000
2023-10-11T08:34:00.651Z,172.500000
2023-10-11T08:35:03.155Z,172.500000
2023-10-11T08:36:00.659Z,142.500000
2023-10-11T08:37:00.615Z,142.500000
2023-10-11T08:38:00.687Z,142.500000
2023-10-11T08:39:00.668Z,157.500000
2023-10-11T08:40:03.649Z,157.500000
2023-10-11T08:41:00.645Z,157.500000
2023-10-11T08:42:00.701Z,185.000000
2023-10-11T08:43:00.648Z,185.000000
2023-10-11T08:44:00.678Z,170.000000
2023-10-11T08:45:03.255Z,170.000000
2023-10-11T08:46:00.745Z,150.000000
2023-10-11T08:47:00.659Z,150.000000
2023-10-11T08:48:00.768Z,160.000000
2023-10-11T08:49:00.664Z,160.000000
2023-10-11T08:50:04.038Z,160.000000
2023-10-11T08:51:00.951Z,142.500000
2023-10-11T08:52:00.794Z,142.500000
2023-10-11T08:53:00.685Z,142.500000
2023-10-11T08:54:00.823Z,167.500000
2023-10-11T08:55:03.312Z,167.500000
2023-10-11T08:56:00.734Z,152.500000
2023-10-11T08:57:00.930Z,152.500000
2023-10-11T08:58:00.800Z,145.000000
2023-10-11T08:59:00.699Z,145.000000
2023-10-11T09:00:05.098Z,145.000000
2023-10-11T09:01:01.584Z,145.000000
2023-10-11T09:02:00.861Z,145.000000
2023-10-11T09:03:00.808Z,145.000000
2023-10-11T09:04:00.866Z,170.000000
2023-10-11T09:05:03.368Z,170.000000
2023-10-11T09:06:01.126Z,170.000000
2023-10-11T09:07:00.757Z,170.000000
2023-10-11T09:08:00.836Z,170.000000
2023-10-11T09:09:00.924Z,137.500000
2023-10-11T09:10:04.078Z,137.500000
2023-10-11T09:11:00.776Z,137.500000
2023-10-11T09:12:00.909Z,137.500000
2023-10-11T09:13:00.812Z,137.500000
2023-10-11T09:14:00.865Z,152.500000
2023-10-11T09:15:03.459Z,152.500000
2023-10-11T09:16:00.999Z,152.500000
2023-10-11T09:17:00.850Z,170.000000
2023-10-11T09:18:01.004Z,170.000000
2023-10-11T09:19:00.891Z,162.500000
2023-10-11T09:20:05.736Z,162.500000
2023-10-11T09:21:00.939Z,177.500000
2023-10-11T09:22:00.909Z,177.500000
2023-10-11T09:23:00.869Z,177.500000
2023-10-11T09:24:00.967Z,167.500000
2023-10-11T09:25:03.528Z,167.500000
2023-10-11T09:26:01.063Z,167.500000
2023-10-11T09:27:00.964Z,155.000000
2023-10-11T09:28:00.959Z,155.000000
2023-10-11T09:29:00.921Z,227.500000
2023-10-11T09:30:04.288Z,227.500000
2023-10-11T09:31:00.921Z,227.500000
2023-10-11T09:32:01.041Z,207.500000
2023-10-11T09:33:01.350Z,207.500000
2023-10-11T09:34:01.003Z,207.500000
2023-10-11T09:35:03.987Z,155.000000
2023-10-11T09:36:01.038Z,155.000000
2023-10-11T09:37:00.973Z,122.500000
2023-10-11T09:38:01.024Z,122.500000
2023-10-11T09:39:01.032Z,122.500000
2023-10-11T09:40:06.097Z,127.500000
2023-10-11T09:41:00.960Z,127.500000
2023-10-11T09:42:01.133Z,147.500000
2023-10-11T09:43:00.975Z,147.500000
2023-10-11T09:44:01.112Z,167.500000
2023-10-11T09:45:03.813Z,167.500000
2023-10-11T09:46:01.123Z,167.500000
2023-10-11T09:47:01.006Z,190.000000
2023-10-11T09:48:01.096Z,190.000000
2023-10-11T09:49:01.056Z,190.000000
2023-10-11T09:50:04.623Z,160.000000
2023-10-11T09:51:01.073Z,160.000000
2023-10-11T09:52:01.118Z,160.000000
2023-10-11T09:53:01.040Z,160.000000
2023-10-11T09:54:01.119Z,160.000000
2023-10-11T09:55:04.590Z,160.000000
2023-10-11T09:56:01.170Z,160.000000
2023-10-11T09:57:01.114Z,155.000000
2023-10-11T09:58:01.146Z,155.000000
2023-10-11T09:59:01.086Z,155.000000
2023-10-11T10:00:04.605Z,145.000000
2023-10-11T10:01:01.146Z,145.000000
2023-10-11T10:02:01.193Z,145.000000
2023-10-11T10:03:01.293Z,155.000000
2023-10-11T10:04:01.317Z,155.000000
2023-10-11T10:05:05.028Z,102.500000
2023-10-11T10:06:01.223Z,102.500000
2023-10-11T10:07:01.151Z,142.500000
2023-10-11T10:08:01.234Z,142.500000
2023-10-11T10:09:00.229Z,142.500000
2023-10-11T10:10:03.637Z,155.000000
2023-10-11T10:11:00.218Z,155.000000
2023-10-11T10:12:00.329Z,192.500000
2023-10-11T10:13:00.271Z,192.500000
2023-10-11T10:14:00.294Z,192.500000
2023-10-11T10:15:04.918Z,185.000000
2023-10-11T10:16:00.304Z,185.000000
2023-10-11T10:17:00.217Z,182.500000
2023-10-11T10:18:00.415Z,182.500000
2023-10-11T10:19:00.378Z,182.500000
2023-10-11T10:20:05.311Z,152.500000
2023-10-11T10:21:00.267Z,152.500000
2023-10-11T10:22:00.334Z,162.500000
2023-10-11T10:23:00.230Z,162.500000
2023-10-11T10:24:00.463Z,162.500000
2023-10-11T10:25:03.440Z,220.000000
2023-10-11T10:26:00.402Z,220.000000
2023-10-11T10:27:00.367Z,195.000000
2023-10-11T10:28:00.383Z,195.000000
2023-10-11T10:29:00.748Z,195.000000
2023-10-11T10:30:03.652Z,270.000000
2023-10-11T10:31:00.323Z,270.000000
2023-10-11T10:32:00.392Z,270.000000
2023-10-11T10:33:00.431Z,10.000000
2023-10-11T10:34:00.435Z,10.000000
2023-10-11T10:35:03.042Z,10.000000
2023-10-11T10:36:00.408Z,132.500000
2023-10-11T10:37:00.383Z,132.500000
2023-10-11T10:38:00.465Z,145.000000
2023-10-11T10:39:00.384Z,145.000000
2023-10-11T10:40:03.757Z,150.000000
2023-10-11T10:41:00.395Z,150.000000
2023-10-11T10:42:00.491Z,150.000000
2023-10-11T10:43:00.353Z,170.000000
2023-10-11T10:44:00.500Z,170.000000
2023-10-11T10:45:02.881Z,170.000000
2023-10-11T10:46:00.450Z,167.500000
2023-10-11T10:47:00.426Z,167.500000
2023-10-11T10:48:00.549Z,167.500000
2023-10-11T10:49:00.541Z,167.500000
2023-10-11T10:50:04.234Z,182.500000
2023-10-11T10:51:00.524Z,182.500000
2023-10-11T10:52:00.508Z,182.500000
2023-10-11T10:53:00.453Z,182.500000
2023-10-11T10:54:00.575Z,182.500000
2023-10-11T10:55:03.524Z,182.500000
2023-10-11T10:56:00.584Z,195.000000
2023-10-11T10:57:00.507Z,195.000000
2023-10-11T10:58:00.545Z,195.000000
2023-10-11T10:59:00.458Z,190.000000
2023-10-11T11:00:03.866Z,190.000000
2023-10-11T11:01:00.574Z,270.000000
2023-10-11T11:02:00.620Z,270.000000
2023-10-11T11:03:00.576Z,120.000000
2023-10-11T11:04:00.793Z,120.000000
2023-10-11T11:05:03.473Z,120.000000
2023-10-11T11:06:00.625Z,240.000000
2023-10-11T11:07:00.558Z,240.000000
2023-10-11T11:08:00.680Z,240.000000
2023-10-11T11:09:00.594Z,270.000000
2023-10-11T11:10:04.331Z,270.000000